Time;durP1;ratioP1;P1;durP2;ratioP2;P2;SDS_P1;SDS_P2;PMS_P1;PMS_P2;Temp;Humidity;BMP_temperature;BMP_pressure;BME280_temperature;BME280_humidity;BME280_pressure;Samples;Min_cycle;Max_cycle;Signal;HPM_P1;HPM_P2
2022/09/08 03:00:19;;;;;;;;;;;17.60;99.90;;;;;;6216855;22;20015;-77
2022/09/08 03:02:46;;;;;;;43.30;34.30;;;17.60;99.90;;;;;;6249991;22;19922;-79
2022/09/08 03:05:13;;;;;;;46.72;36.40;;;17.60;99.90;;;;;;6249799;22;20046;-79
2022/09/08 03:07:39;;;;;;;43.55;35.08;;;17.60;99.90;;;;;;6250037;22;20018;-81
2022/09/08 03:10:06;;;;;;;44.42;35.60;;;17.60;99.90;;;;;;6250401;22;20069;-79
2022/09/08 03:12:33;;;;;;;43.78;34.95;;;17.60;99.90;;;;;;6224617;22;20034;-79
2022/09/08 03:14:59;;;;;;;42.17;35.08;;;17.60;99.90;;;;;;6249799;22;20015;-80
2022/09/08 03:17:25;;;;;;;42.15;35.47;;;17.60;99.90;;;;;;6249906;22;20344;-78
2022/09/08 03:19:53;;;;;;;42.58;35.70;;;17.60;99.90;;;;;;6249860;22;20078;-77
2022/09/08 03:22:19;;;;;;;45.15;34.33;;;17.60;99.90;;;;;;6250053;22;20421;-81
2022/09/08 03:24:44;;;;;;;41.90;33.15;;;17.60;99.90;;;;;;6224490;22;20016;-79
2022/09/08 03:27:10;;;;;;;44.72;35.72;;;17.60;99.90;;;;;;6249985;22;20007;-78
2022/09/08 03:29:36;;;;;;;44.00;36.13;;;17.70;99.90;;;;;;6249746;22;20012;-80
2022/09/08 03:32:01;;;;;;;45.53;37.00;;;17.70;99.90;;;;;;6249772;22;20012;-78
2022/09/08 03:34:27;;;;;;;42.50;35.70;;;17.70;99.90;;;;;;6249840;22;20051;-81
2022/09/08 03:36:53;;;;;;;45.70;36.05;;;17.70;99.90;;;;;;6249873;22;20066;-84
2022/09/08 03:39:20;;;;;;;45.35;35.30;;;17.70;99.90;;;;;;6250554;22;20011;-80
2022/09/08 03:41:46;;;;;;;41.10;33.42;;;17.60;99.90;;;;;;6249539;22;20376;-80
2022/09/08 03:44:11;;;;;;;44.03;33.80;;;17.50;99.90;;;;;;6249371;22;20045;-77
2022/09/08 03:46:37;;;;;;;42.20;32.75;;;17.40;99.90;;;;;;6249843;22;20011;-79
2022/09/08 03:49:04;;;;;;;60.92;37.88;;;17.40;99.90;;;;;;6249862;22;20047;-77
2022/09/08 03:51:30;;;;;;;69.85;41.38;;;17.30;99.90;;;;;;6249220;22;20012;-80
2022/09/08 03:54:46;;;;;;;72.13;42.92;;;17.20;99.90;;;;;;6277185;22;20015;-80
2022/09/08 03:56:45;;;;;;;66.70;41.88;;;17.10;99.90;;;;;;6249789;22;20091;-79
2022/09/08 03:59:12;;;;;;;66.68;41.85;;;17.10;99.90;;;;;;6249687;22;20043;-81
2022/09/08 04:01:39;;;;;;;121.65;53.88;;;17.10;99.90;;;;;;6244763;22;20032;-81
2022/09/08 04:04:05;;;;;;;80.97;45.20;;;17.10;99.90;;;;;;6244920;23;20020;-81
2022/09/08 04:06:31;;;;;;;184.85;61.08;;;17.20;99.90;;;;;;6246839;23;20385;-77
2022/09/08 04:08:57;;;;;;;138.95;54.90;;;17.20;99.90;;;;;;6245021;23;20008;-79
2022/09/08 04:11:23;;;;;;;120.35;53.63;;;17.20;99.90;;;;;;6244719;22;20400;-82
2022/09/08 04:13:50;;;;;;;175.45;59.00;;;17.20;99.90;;;;;;6220160;23;20089;-78
2022/09/08 04:16:16;;;;;;;222.07;63.85;;;17.20;99.90;;;;;;6244754;23;20091;-81
2022/09/08 04:18:43;;;;;;;264.20;67.53;;;17.20;99.90;;;;;;6245397;23;20044;-82
2022/09/08 04:21:09;;;;;;;228.93;65.80;;;17.20;99.90;;;;;;6244830;22;20023;-83
2022/09/08 04:23:34;;;;;;;128.75;54.38;;;17.20;99.90;;;;;;6247022;23;20012;-82
2022/09/08 04:26:06;;;;;;;160.23;58.47;;;17.10;99.90;;;;;;6244780;23;20012;-82
2022/09/08 04:28:34;;;;;;;155.60;58.90;;;17.20;99.90;;;;;;6246474;22;20012;-83
2022/09/08 04:31:07;;;;;;;137.07;56.75;;;17.10;99.90;;;;;;6244900;22;20012;-83
2022/09/08 04:33:33;;;;;;;148.70;58.55;;;17.10;99.90;;;;;;6246918;22;20016;-81
2022/09/08 04:36:04;;;;;;;146.30;57.85;;;17.10;99.90;;;;;;6246906;22;20009;-78
2022/09/08 04:38:29;;;;;;;169.93;63.08;;;17.20;99.90;;;;;;6245077;23;20334;-80
2022/09/08 04:40:55;;;;;;;108.32;54.88;;;17.20;99.90;;;;;;6244812;22;20083;-82
2022/09/08 04:43:20;;;;;;;98.90;50.72;;;17.20;99.90;;;;;;6244946;23;20012;-80
2022/09/08 04:45:46;;;;;;;73.45;41.42;;;17.20;99.90;;;;;;6244813;23;20342;-80
2022/09/08 04:48:12;;;;;;;45.63;30.77;;;17.10;99.90;;;;;;6245152;23;20013;-84
2022/09/08 04:50:38;;;;;;;59.22;35.97;;;17.00;99.90;;;;;;6244617;22;20016;-78
2022/09/08 04:53:04;;;;;;;56.08;34.03;;;16.90;99.90;;;;;;6244852;23;20364;-83
2022/09/08 04:55:29;;;;;;;54.67;34.08;;;17.00;99.90;;;;;;6246582;23;20011;-82
2022/09/08 04:57:55;;;;;;;87.88;41.53;;;16.90;99.90;;;;;;6248383;22;20012;-83
2022/09/08 05:00:21;;;;;;;73.65;40.83;;;17.00;99.90;;;;;;6247507;22;20043;-79
2022/09/08 05:02:48;;;;;;;82.63;41.67;;;17.00;99.90;;;;;;6277207;22;20018;-79
2022/09/08 05:05:14;;;;;;;105.28;44.60;;;17.00;99.90;;;;;;6252224;22;20012;-79
2022/09/08 05:07:39;;;;;;;77.53;41.03;;;17.00;99.90;;;;;;6226360;22;20048;-81
2022/09/08 05:10:07;;;;;;;134.57;47.75;;;17.00;99.90;;;;;;6278905;22;20019;-80
2022/09/08 05:12:33;;;;;;;115.30;44.65;;;17.10;99.90;;;;;;6251676;22;20057;-78
2022/09/08 05:14:59;;;;;;;173.98;54.38;;;17.00;99.90;;;;;;6251018;22;20019;-81
2022/09/08 05:17:25;;;;;;;198.13;57.08;;;17.00;99.90;;;;;;6251162;22;20429;-80
2022/09/08 05:19:51;;;;;;;123.95;50.38;;;17.00;99.90;;;;;;6251372;22;20016;-82
2022/09/08 05:22:16;;;;;;;111.03;49.75;;;17.00;99.90;;;;;;6278088;22;20020;-84
2022/09/08 05:24:42;;;;;;;143.18;54.17;;;17.00;99.90;;;;;;6278419;22;20011;-78
2022/09/08 05:27:07;;;;;;;378.58;74.53;;;17.00;99.90;;;;;;6276537;22;20016;-79
2022/09/08 05:29:33;;;;;;;114.03;52.53;;;16.90;99.90;;;;;;6251613;22;20012;-86
2022/09/08 05:31:59;;;;;;;123.82;54.50;;;16.90;99.90;;;;;;6278478;22;20502;-80
2022/09/08 05:34:24;;;;;;;160.63;59.60;;;16.80;99.90;;;;;;6251060;22;20510;-80
2022/09/08 05:36:50;;;;;;;139.98;55.97;;;16.80;99.90;;;;;;6278394;22;20082;-81
2022/09/08 05:39:16;;;;;;;150.35;55.00;;;16.90;99.90;;;;;;6250844;22;20020;-84
2022/09/08 05:41:42;;;;;;;171.73;58.65;;;16.80;99.90;;;;;;6251061;22;20012;-84
2022/09/08 05:44:13;;;;;;;111.05;48.95;;;16.80;99.90;;;;;;6278310;22;20422;-85
2022/09/08 05:46:39;;;;;;;127.28;50.83;;;16.90;99.90;;;;;;6253466;22;20405;-80
2022/09/08 05:49:05;;;;;;;142.80;51.67;;;16.80;99.90;;;;;;6251194;22;20022;-80
2022/09/08 05:51:32;;;;;;;104.65;45.50;;;16.90;99.90;;;;;;6278240;22;20012;-83
2022/09/08 05:53:59;;;;;;;77.47;37.83;;;16.90;99.90;;;;;;6227408;22;20507;-82
2022/09/08 05:56:25;;;;;;;88.72;38.85;;;16.80;99.90;;;;;;6279462;22;20062;-82
2022/09/08 05:58:52;;;;;;;96.07;38.42;;;16.90;99.90;;;;;;6278309;22;20016;-81
2022/09/08 06:01:18;;;;;;;90.25;38.40;;;16.90;99.90;;;;;;6246647;22;20345;-82
2022/09/08 06:03:44;;;;;;;101.93;42.42;;;16.90;99.90;;;;;;6221288;23;20012;-82
2022/09/08 06:06:11;;;;;;;100.97;44.38;;;16.80;99.90;;;;;;6246990;23;20070;-80
2022/09/08 06:08:39;;;;;;;108.53;47.55;;;16.90;99.90;;;;;;6246276;23;20091;-78
2022/09/08 06:11:06;;;;;;;113.22;54.00;;;16.90;99.90;;;;;;6246073;22;20048;-81
2022/09/08 06:13:32;;;;;;;138.73;55.67;;;16.90;99.90;;;;;;6245775;23;20016;-79
2022/09/08 06:16:06;;;;;;;154.52;61.25;;;16.90;99.90;;;;;;6245917;23;20048;-82
2022/09/08 06:18:34;;;;;;;108.68;55.30;;;16.90;99.90;;;;;;6246001;23;20403;-82
2022/09/08 06:21:04;;;;;;;134.60;62.88;;;16.90;99.90;;;;;;6247660;22;20016;-83
2022/09/08 06:23:29;;;;;;;139.68;62.17;;;16.80;99.90;;;;;;6247336;23;20082;-81
2022/09/08 06:25:55;;;;;;;185.07;69.70;;;16.90;99.90;;;;;;6247504;23;20438;-81
2022/09/08 06:28:21;;;;;;;138.07;62.15;;;16.90;99.90;;;;;;6247481;23;20062;-82
2022/09/08 06:30:50;;;;;;;142.40;60.50;;;16.90;99.90;;;;;;6245915;22;20019;-82
2022/09/08 06:33:22;;;;;;;165.45;64.53;;;16.90;99.90;;;;;;6247726;22;20035;-80
2022/09/08 06:35:57;;;;;;;208.05;70.30;;;16.90;99.90;;;;;;6246114;23;20307;-83
2022/09/08 06:38:42;;;;;;;196.05;72.18;;;16.90;99.90;;;;;;6247397;22;20008;-84
2022/09/08 06:41:16;;;;;;;160.77;65.88;;;16.90;99.90;;;;;;6245537;22;20019;-80
2022/09/08 06:43:46;;;;;;;164.10;67.78;;;17.00;99.90;;;;;;6245823;23;20371;-84
2022/09/08 06:46:19;;;;;;;198.00;71.93;;;17.00;99.90;;;;;;6247370;22;20425;-82
2022/09/08 06:48:45;;;;;;;164.38;70.30;;;17.00;99.90;;;;;;6245768;23;20016;-81
2022/09/08 06:51:41;;;;;;;120.95;59.97;;;17.00;99.90;;;;;;6247010;22;20333;-80
2022/09/08 06:54:10;;;;;;;55.00;32.72;;;16.90;99.90;;;;;;6247364;22;20016;-82
2022/09/08 06:56:48;;;;;;;54.53;31.33;;;16.90;99.90;;;;;;6245308;23;20016;-81
2022/09/08 06:59:35;;;;;;;52.08;32.60;;;16.80;99.90;;;;;;6245987;23;20067;-81
2022/09/08 07:02:07;;;;;;;47.85;30.02;;;16.70;99.90;;;;;;6220021;23;20019;-85
2022/09/08 07:04:38;;;;;;;58.25;33.38;;;16.70;99.90;;;;;;6245699;23;20016;-84
2022/09/08 07:07:23;;;;;;;49.22;31.20;;;16.70;99.90;;;;;;6245666;23;20319;-83
2022/09/08 07:10:26;;;;;;;41.60;27.70;;;16.70;99.90;;;;;;6247288;22;20142;-82
2022/09/08 07:13:24;;;;;;;42.92;28.63;;;16.70;99.90;;;;;;6247077;22;20066;-84
2022/09/08 07:16:13;;;;;;;52.55;32.08;;;16.70;99.90;;;;;;6245151;23;20457;-84
2022/09/08 07:19:08;;;;;;;41.92;29.45;;;16.70;99.90;;;;;;6244694;23;20062;-85
2022/09/08 07:21:53;;;;;;;71.13;35.95;;;16.80;99.90;;;;;;6243434;23;20054;-83
2022/09/08 07:24:24;;;;;;;57.60;34.60;;;16.80;99.90;;;;;;6245290;23;20472;-84
2022/09/08 07:26:55;;;;;;;53.45;31.75;;;16.80;99.90;;;;;;6247420;22;20019;-85
2022/09/08 07:29:30;;;;;;;39.53;26.20;;;16.80;99.90;;;;;;6245202;23;20016;-84
2022/09/08 07:31:58;;;;;;;42.65;28.45;;;16.80;99.90;;;;;;6245221;22;20043;-85
2022/09/08 07:34:27;;;;;;;38.50;25.75;;;16.70;99.90;;;;;;6245465;23;20012;-82
2022/09/08 07:37:17;;;;;;;40.33;24.17;;;16.70;99.90;;;;;;6245365;23;20087;-82
2022/09/08 07:40:04;;;;;;;51.08;28.60;;;16.70;99.90;;;;;;6245068;23;20019;-84
2022/09/08 07:42:31;;;;;;;44.10;27.95;;;16.70;99.90;;;;;;6246018;22;20015;-83
2022/09/08 07:45:09;;;;;;;35.90;21.67;;;16.80;99.90;;;;;;6244481;23;20016;-85
2022/09/08 07:48:03;;;;;;;44.58;21.70;;;16.70;99.90;;;;;;6246796;22;20015;-82
2022/09/08 07:53:46;;;;;;;29.88;19.45;;;16.80;99.90;;;;;;6246408;23;20294;-83
2022/09/08 07:56:41;;;;;;;63.95;28.38;;;16.80;99.90;;;;;;6244934;23;20009;-82
2022/09/08 07:59:23;;;;;;;33.95;20.95;;;16.80;99.90;;;;;;6246324;23;20056;-83
2022/09/08 08:02:22;;;;;;;38.80;23.33;;;16.90;99.90;;;;;;6265596;22;20017;-82
2022/09/08 08:05:07;;;;;;;30.23;18.88;;;16.90;99.90;;;;;;6276949;22;20366;-83
2022/09/08 08:07:43;;;;;;;38.07;21.57;;;16.90;99.90;;;;;;6277111;22;20019;-83
2022/09/08 08:10:21;;;;;;;35.85;22.17;;;16.80;99.90;;;;;;6277014;22;20060;-82
2022/09/08 08:12:57;;;;;;;43.47;22.80;;;16.90;99.90;;;;;;6277611;22;20008;-83
2022/09/08 08:15:45;;;;;;;27.13;17.08;;;16.90;99.90;;;;;;6277775;22;20114;-82
2022/09/08 08:18:28;;;;;;;21.50;13.13;;;16.90;99.90;;;;;;6250137;22;20047;-83
2022/09/08 08:20:57;;;;;;;29.95;15.57;;;16.90;99.90;;;;;;6249869;22;20016;-83
2022/09/08 08:23:39;;;;;;;27.45;15.60;;;16.80;99.90;;;;;;6277433;22;20043;-82
2022/09/08 08:26:32;;;;;;;25.52;14.43;;;16.80;99.90;;;;;;6249828;22;20026;-83
2022/09/08 08:29:30;;;;;;;23.60;14.32;;;16.90;99.90;;;;;;6277475;22;20083;-83
2022/09/08 08:32:25;;;;;;;24.20;14.00;;;16.90;99.90;;;;;;6251406;22;20384;-83
2022/09/08 08:35:01;;;;;;;23.33;14.80;;;16.90;99.90;;;;;;6226136;22;20020;-84
2022/09/08 08:37:31;;;;;;;25.40;14.73;;;16.90;99.90;;;;;;6251641;22;20022;-83
2022/09/08 08:39:59;;;;;;;27.70;16.05;;;16.90;99.90;;;;;;6279105;22;20090;-84
2022/09/08 08:42:40;;;;;;;28.88;15.35;;;16.90;99.90;;;;;;6278632;22;20016;-83
2022/09/08 08:45:35;;;;;;;25.77;14.45;;;16.90;99.90;;;;;;6251797;22;20043;-83
2022/09/08 08:48:03;;;;;;;26.17;13.93;;;17.00;99.90;;;;;;6226295;22;20016;-83
2022/09/08 08:50:39;;;;;;;27.73;13.80;;;16.90;99.90;;;;;;6251507;22;20376;-82
2022/09/08 08:53:37;;;;;;;25.30;12.90;;;16.90;99.90;;;;;;6278688;22;20012;-83
2022/09/08 08:56:17;;;;;;;21.50;12.70;;;16.90;99.90;;;;;;6251451;22;20019;-83
2022/09/08 08:59:05;;;;;;;21.90;12.15;;;17.00;99.90;;;;;;6251424;22;20008;-83
2022/09/08 09:01:56;;;;;;;23.35;12.77;;;16.90;99.90;;;;;;6278851;22;20022;-83
2022/09/08 09:04:59;;;;;;;20.35;12.10;;;16.90;99.90;;;;;;6278636;22;20014;-84
2022/09/08 09:07:45;;;;;;;21.10;12.60;;;16.90;99.90;;;;;;6278368;22;20429;-82
2022/09/08 09:10:29;;;;;;;25.08;12.68;;;16.90;99.90;;;;;;6251217;22;20061;-80
2022/09/08 09:13:01;;;;;;;27.48;13.02;;;16.90;99.90;;;;;;6251260;22;20027;-82
2022/09/08 09:15:45;;;;;;;26.13;13.65;;;16.90;99.90;;;;;;6251051;22;20069;-81
2022/09/08 09:18:37;;;;;;;28.05;12.88;;;16.90;99.90;;;;;;6251170;22;20019;-82
2022/09/08 09:21:17;;;;;;;18.92;11.65;;;16.80;99.90;;;;;;6278475;22;20380;-84
2022/09/08 09:23:53;;;;;;;24.60;11.95;;;16.80;99.90;;;;;;6278082;22;20417;-82
2022/09/08 09:26:21;;;;;;;18.42;10.90;;;16.80;99.90;;;;;;6251987;22;20026;-82
2022/09/08 09:29:26;;;;;;;17.35;10.35;;;16.80;99.90;;;;;;6278620;22;20070;-82
2022/09/08 09:32:44;;;;;;;15.70;8.45;;;16.80;99.90;;;;;;6277239;22;20012;-83
2022/09/08 09:35:41;;;;;;;14.32;7.75;;;16.70;99.90;;;;;;6278425;22;20016;-82
2022/09/08 09:38:26;;;;;;;13.10;7.85;;;16.70;99.90;;;;;;6251355;22;20058;-83
2022/09/08 09:41:22;;;;;;;14.35;7.95;;;16.60;99.90;;;;;;6278812;22;20013;-83
2022/09/08 09:44:15;;;;;;;14.38;7.28;;;16.50;99.90;;;;;;6251375;22;20020;-82
2022/09/08 09:46:51;;;;;;;7.43;4.80;;;16.50;99.90;;;;;;6278418;22;20447;-81
2022/09/08 09:49:27;;;;;;;9.57;3.60;;;16.50;99.90;;;;;;6287656;22;20008;-80
2022/09/08 09:52:04;;;;;;;8.23;3.90;;;16.40;99.90;;;;;;6263133;22;20042;-81
2022/09/08 09:54:36;;;;;;;10.45;3.88;;;16.40;99.90;;;;;;6288898;22;20016;-83
2022/09/08 09:57:35;;;;;;;6.60;3.70;;;16.40;99.90;;;;;;6281714;22;20011;-83
2022/09/08 10:00:48;;;;;;;8.40;3.35;;;16.30;99.90;;;;;;6253358;22;20065;-82
2022/09/08 10:03:49;;;;;;;11.30;4.40;;;16.30;99.90;;;;;;6195003;23;20442;-84
2022/09/08 10:06:25;;;;;;;6.03;2.85;;;16.30;99.90;;;;;;6248234;23;20500;-85
2022/09/08 10:09:29;;;;;;;5.43;2.60;;;16.30;99.90;;;;;;6249530;23;20057;-82
2022/09/08 10:12:18;;;;;;;7.30;2.95;;;16.20;99.90;;;;;;6248637;23;20048;-83
2022/09/08 10:15:16;;;;;;;5.82;3.13;;;16.20;99.90;;;;;;6247135;23;20419;-82
2022/09/08 10:18:11;;;;;;;4.68;3.40;;;16.20;99.90;;;;;;6247571;23;20058;-82
2022/09/08 10:20:49;;;;;;;5.30;3.30;;;16.20;99.90;;;;;;6247276;23;20050;-81
2022/09/08 10:23:45;;;;;;;5.35;2.80;;;16.20;99.90;;;;;;6247682;23;20082;-86
2022/09/08 10:26:49;;;;;;;6.60;2.95;;;16.20;99.90;;;;;;6220197;23;20012;-83
2022/09/08 10:29:52;;;;;;;4.32;2.58;;;16.20;99.90;;;;;;6247349;23;20052;-82
2022/09/08 10:32:50;;;;;;;6.05;2.60;;;16.20;99.90;;;;;;6219904;23;20445;-84
2022/09/08 10:35:37;;;;;;;5.45;2.58;;;16.20;99.90;;;;;;6195076;23;20024;-82
2022/09/08 10:38:23;;;;;;;4.97;2.75;;;16.20;99.90;;;;;;6247482;23;20065;-80
2022/09/08 10:40:51;;;;;;;;;;;16.20;99.90;;;;;;6200689;23;20046;-83
2022/09/08 10:43:51;;;;;;;5.88;3.13;;;16.20;99.90;;;;;;6220572;23;19918;-83
2022/09/08 10:46:55;;;;;;;6.93;3.70;;;16.20;99.90;;;;;;6247373;23;20004;-82
2022/09/08 10:49:58;;;;;;;6.95;3.95;;;16.20;99.90;;;;;;6247004;23;20008;-82
2022/09/08 10:52:43;;;;;;;9.38;4.72;;;16.30;99.90;;;;;;6246607;23;20066;-83
2022/09/08 10:55:30;;;;;;;10.02;4.97;;;16.30;99.90;;;;;;6219997;23;20042;-82
2022/09/08 10:58:14;;;;;;;8.23;4.50;;;16.30;99.90;;;;;;6220396;23;20097;-82
2022/09/08 11:01:01;;;;;;;9.57;5.68;;;16.30;99.90;;;;;;6251721;22;20008;-82
2022/09/08 11:03:27;;;;;;;15.25;5.93;;;16.30;99.90;;;;;;6251709;22;20027;-82
2022/09/08 11:05:58;;;;;;;8.00;5.60;;;16.30;99.90;;;;;;6277613;22;20082;-82
2022/09/08 11:08:50;;;;;;;10.23;6.03;;;16.40;99.90;;;;;;6277654;22;20480;-83
2022/09/08 11:11:42;;;;;;;10.02;6.07;;;16.40;99.90;;;;;;6250729;22;20018;-83
2022/09/08 11:14:31;;;;;;;11.88;6.50;;;16.40;99.90;;;;;;6279063;22;20090;-86
2022/09/08 11:17:19;;;;;;;10.60;6.80;;;16.50;99.90;;;;;;6276752;22;20617;-84
2022/09/08 11:19:56;;;;;;;13.85;7.18;;;16.50;99.90;;;;;;6249685;22;20012;-83
2022/09/08 11:23:07;;;;;;;11.90;7.55;;;16.50;99.90;;;;;;6277460;22;20015;-84
2022/09/08 11:25:45;;;;;;;10.35;6.43;;;16.50;99.90;;;;;;6204244;22;20019;-84
2022/09/08 11:28:23;;;;;;;9.90;6.63;;;16.50;99.90;;;;;;6277344;22;20015;-84
2022/09/08 11:31:07;;;;;;;11.40;6.95;;;16.50;99.90;;;;;;6277258;22;20023;-82
2022/09/08 11:33:54;;;;;;;12.80;7.97;;;16.50;99.90;;;;;;6277287;22;20027;-84
2022/09/08 11:36:42;;;;;;;11.35;7.78;;;16.60;99.90;;;;;;6224675;22;20019;-82
2022/09/08 11:39:33;;;;;;;12.57;7.57;;;16.60;99.90;;;;;;6276393;22;20022;-81
2022/09/08 11:42:20;;;;;;;15.20;7.78;;;16.70;99.90;;;;;;6210084;22;20107;-79
2022/09/08 11:45:08;;;;;;;14.48;8.68;;;16.70;99.90;;;;;;6249726;22;20439;-81
2022/09/08 11:47:54;;;;;;;12.77;8.27;;;16.70;99.90;;;;;;6249857;22;20015;-82
2022/09/08 11:50:22;;;;;;;14.20;8.35;;;16.70;99.90;;;;;;6249684;22;20038;-81
2022/09/08 11:53:21;;;;;;;15.98;9.05;;;16.70;99.90;;;;;;6276809;22;20437;-81
2022/09/08 11:56:05;;;;;;;15.60;9.65;;;16.80;99.90;;;;;;6249716;22;20023;-81
2022/09/08 11:58:35;;;;;;;18.73;10.88;;;16.80;99.90;;;;;;6249627;22;20089;-82
2022/09/08 12:01:32;;;;;;;15.68;10.57;;;16.90;99.90;;;;;;6244292;22;20012;-81
2022/09/08 12:04:28;;;;;;;17.95;10.77;;;16.90;99.90;;;;;;6245190;23;20346;-80
2022/09/08 12:07:18;;;;;;;17.77;10.90;;;17.00;99.90;;;;;;6221335;23;20449;-80
2022/09/08 12:10:18;;;;;;;17.30;11.55;;;17.00;99.90;;;;;;6247095;23;20023;-81
2022/09/08 12:13:21;;;;;;;19.30;12.50;;;17.10;99.90;;;;;;6246717;23;20070;-82
2022/09/08 12:16:43;;;;;;;20.70;11.85;;;17.10;99.90;;;;;;6246547;23;20016;-81
2022/09/08 12:19:33;;;;;;;19.48;11.45;;;17.10;99.90;;;;;;6190075;23;20347;-81
2022/09/08 12:21:59;;;;;;;21.70;13.55;;;17.20;99.90;;;;;;6245506;23;20034;-81
2022/09/08 12:24:55;;;;;;;21.33;12.63;;;17.20;99.90;;;;;;6220869;23;20467;-80
2022/09/08 12:27:40;;;;;;;22.33;13.73;;;17.20;99.90;;;;;;6246299;23;20434;-82
2022/09/08 12:30:22;;;;;;;22.27;13.93;;;17.20;99.90;;;;;;6246628;23;20016;-79
2022/09/08 12:33:06;;;;;;;23.67;14.23;;;17.30;99.90;;;;;;6221256;23;20016;-81
2022/09/08 12:35:47;;;;;;;22.42;13.68;;;17.30;99.90;;;;;;6248740;23;20339;-79
2022/09/08 12:38:15;;;;;;;26.38;14.70;;;17.40;99.90;;;;;;6246428;23;20430;-83
2022/09/08 12:40:47;;;;;;;24.70;14.65;;;17.40;99.90;;;;;;6246241;22;20091;-80
2022/09/08 12:43:24;;;;;;;27.23;16.13;;;17.50;99.90;;;;;;6246719;23;20023;-77
2022/09/08 12:46:09;;;;;;;22.77;15.27;;;17.60;99.90;;;;;;6246304;23;20016;-81
2022/09/08 12:48:51;;;;;;;;;;;17.60;99.90;;;;;;6246883;23;20040;-82
2022/09/08 12:51:35;;;;;;;24.90;15.30;;;17.70;99.90;;;;;;6221059;23;20336;-82
2022/09/08 12:54:37;;;;;;;25.10;14.95;;;17.80;99.90;;;;;;6246246;23;20438;-80
2022/09/08 12:57:44;;;;;;;24.85;15.93;;;17.80;99.90;;;;;;6246951;23;20070;-80
2022/09/08 13:00:16;;;;;;;25.98;15.68;;;17.80;99.90;;;;;;6190089;23;20017;-82
2022/09/08 13:03:08;;;;;;;21.42;14.43;;;17.90;99.90;;;;;;6215047;23;20020;-80
2022/09/08 13:05:55;;;;;;;24.10;15.52;;;17.90;99.90;;;;;;6236245;22;20020;-82
2022/09/08 13:08:30;;;;;;;26.08;16.73;;;17.90;99.90;;;;;;6246638;23;20012;-82
2022/09/08 13:11:24;;;;;;;24.35;15.82;;;17.90;99.90;;;;;;6248361;22;20426;-83
2022/09/08 13:13:50;;;;;;;19.75;13.82;;;17.80;99.90;;;;;;6246644;23;20020;-79
2022/09/08 13:16:24;;;;;;;24.77;16.27;;;17.80;99.90;;;;;;6247628;23;20016;-79
2022/09/08 13:18:58;;;;;;;26.52;17.05;;;17.70;99.90;;;;;;6247659;22;20026;-80
2022/09/08 13:21:39;;;;;;;31.85;18.40;;;17.70;99.90;;;;;;6220814;23;20052;-83
2022/09/08 13:24:35;;;;;;;38.72;19.25;;;17.60;99.90;;;;;;6246194;23;20457;-79
2022/09/08 13:27:13;;;;;;;;;;;17.60;99.90;;;;;;6246374;23;20016;-78
2022/09/08 13:29:47;;;;;;;32.00;18.00;;;17.50;99.90;;;;;;6247747;22;19912;-79
2022/09/08 13:32:52;;;;;;;13.57;8.75;;;17.50;99.90;;;;;;6245680;22;20012;-80
2022/09/08 13:35:29;;;;;;;9.93;6.45;;;17.30;99.90;;;;;;6184696;23;20012;-78
2022/09/08 13:38:43;;;;;;;10.90;7.55;;;17.20;99.90;;;;;;6245818;23;20323;-79
2022/09/08 13:41:18;;;;;;;9.63;6.97;;;17.10;99.90;;;;;;6209540;23;20016;-81
2022/09/08 13:43:46;;;;;;;14.90;9.43;;;17.10;99.90;;;;;;6245529;23;20067;-81
2022/09/08 13:46:50;;;;;;;11.85;8.80;;;17.10;99.90;;;;;;6246748;23;20016;-81
2022/09/08 13:49:25;;;;;;;15.13;9.43;;;17.20;99.90;;;;;;6211540;23;20334;-82
2022/09/08 13:52:12;;;;;;;15.38;9.27;;;17.30;99.90;;;;;;6245608;22;20070;-81
2022/09/08 13:54:59;;;;;;;13.68;8.90;;;17.30;99.90;;;;;;6245719;23;20020;-81
2022/09/08 13:57:34;;;;;;;16.73;10.30;;;17.40;99.90;;;;;;6247542;22;20020;-81
2022/09/08 14:00:14;;;;;;;14.70;10.30;;;17.50;99.90;;;;;;6246264;23;20066;-82
2022/09/08 14:02:39;;;;;;;16.52;10.48;;;17.60;99.90;;;;;;6245369;23;20016;-82
2022/09/08 14:05:31;;;;;;;18.77;10.52;;;17.60;99.90;;;;;;6246393;23;20020;-80
2022/09/08 14:08:38;;;;;;;22.67;12.77;;;17.70;99.90;;;;;;6220188;23;20384;-85
2022/09/08 14:11:48;;;;;;;20.73;13.60;;;17.70;99.90;;;;;;6188914;23;20490;-81
2022/09/08 14:14:17;;;;;;;24.55;15.80;;;17.80;99.90;;;;;;6230466;23;20353;-83
2022/09/08 14:16:43;;;;;;;23.00;13.55;;;17.80;99.90;;;;;;6245649;23;20437;-84
2022/09/08 14:19:40;;;;;;;29.67;16.38;;;17.80;99.90;;;;;;6221593;23;20043;-84
2022/09/08 14:22:21;;;;;;;25.33;15.27;;;17.70;99.90;;;;;;6248464;22;20035;-85
2022/09/08 14:24:58;;;;;;;29.67;15.77;;;17.70;99.90;;;;;;6245386;23;20020;-86
2022/09/08 14:27:57;;;;;;;24.85;16.15;;;17.70;99.90;;;;;;6247312;23;20072;-82
2022/09/08 14:30:47;;;;;;;32.25;17.48;;;17.70;99.90;;;;;;6245573;22;20012;-83
2022/09/08 14:33:43;;;;;;;32.67;16.27;;;17.80;99.90;;;;;;6247874;22;20008;-82
2022/09/08 14:36:27;;;;;;;;;;;17.80;99.90;;;;;;6220498;23;20032;-81
2022/09/08 14:39:00;;;;;;;31.50;17.10;;;17.80;99.90;;;;;;6246863;23;19912;-84
2022/09/08 14:41:26;;;;;;;32.15;17.20;;;17.80;99.90;;;;;;6219064;23;20049;-84
2022/09/08 14:44:01;;;;;;;31.15;18.10;;;17.80;99.90;;;;;;6245388;23;20083;-83
2022/09/08 14:46:45;;;;;;;33.63;17.38;;;17.80;99.90;;;;;;6245263;23;20066;-80
2022/09/08 14:49:16;;;;;;;35.63;18.17;;;17.80;99.90;;;;;;6246929;22;20008;-80
2022/09/08 14:52:01;;;;;;;39.33;18.95;;;17.70;99.90;;;;;;6244992;22;20019;-81
2022/09/08 14:54:32;;;;;;;48.70;19.90;;;17.70;99.90;;;;;;6245257;23;20088;-83
2022/09/08 14:57:14;;;;;;;37.42;18.83;;;17.80;99.90;;;;;;6247564;23;20022;-80
2022/09/08 15:00:14;;;;;;;34.60;18.10;;;17.80;99.90;;;;;;6246395;23;20418;-82
2022/09/08 15:02:58;;;;;;;29.38;16.70;;;17.80;99.90;;;;;;6220204;23;20012;-80
2022/09/08 15:05:32;;;;;;;28.95;17.50;;;17.90;99.90;;;;;;6247659;22;20448;-84
2022/09/08 15:08:15;;;;;;;28.35;16.42;;;18.00;99.90;;;;;;6245193;23;20058;-81
2022/09/08 15:10:58;;;;;;;31.27;17.13;;;18.10;99.90;;;;;;6245011;22;20008;-84
2022/09/08 15:13:32;;;;;;;30.83;17.52;;;18.10;99.90;;;;;;6246742;23;20019;-83
2022/09/08 15:16:19;;;;;;;29.03;15.97;;;18.20;99.90;;;;;;6220350;23;20016;-82
2022/09/08 15:18:51;;;;;;;28.40;17.75;;;18.30;99.90;;;;;;6245586;23;20073;-83
2022/09/08 15:21:20;;;;;;;26.73;15.95;;;18.50;99.90;;;;;;6246673;22;20499;-82
2022/09/08 15:23:51;;;;;;;27.65;17.40;;;18.60;99.90;;;;;;6249060;22;20061;-82
2022/09/08 15:26:45;;;;;;;23.60;16.02;;;18.60;99.90;;;;;;6249232;22;20011;-80
2022/09/08 15:29:14;;;;;;;29.58;16.17;;;18.70;99.90;;;;;;6221587;23;20012;-84
2022/09/08 15:32:09;;;;;;;23.15;16.02;;;18.90;99.90;;;;;;6251083;22;20430;-84
2022/09/08 15:34:36;;;;;;;26.63;15.95;;;19.00;99.90;;;;;;6250066;22;20067;-82
2022/09/08 15:37:35;;;;;;;27.15;16.38;;;19.20;99.90;;;;;;6246504;23;20015;-83
2022/09/08 15:40:22;;;;;;;22.85;15.98;;;19.20;99.90;;;;;;6247687;22;20422;-82
2022/09/08 15:42:57;;;;;;;23.95;15.93;;;19.20;99.90;;;;;;6245175;23;20020;-83
2022/09/08 15:45:22;;;;;;;;;;;19.20;99.90;;;;;;6246373;23;20012;-82
2022/09/08 15:48:09;;;;;;;24.23;15.05;;;19.20;99.90;;;;;;6245086;23;19919;-82
2022/09/08 15:50:56;;;;;;;24.02;16.33;;;19.30;99.90;;;;;;6246949;22;20315;-82
2022/09/08 15:53:37;;;;;;;21.08;14.52;;;19.40;99.90;;;;;;6246897;22;20008;-81
2022/09/08 15:56:14;;;;;;;21.52;14.57;;;19.60;99.90;;;;;;6246195;23;20058;-83
2022/09/08 15:59:03;;;;;;;19.25;11.10;;;19.80;99.90;;;;;;6246960;23;20012;-82
2022/09/08 16:01:59;;;;;;;17.10;10.88;;;19.90;99.90;;;;;;6261495;22;20050;-83
2022/09/08 16:04:36;;;;;;;8.18;5.30;;;19.90;99.90;;;;;;6250151;22;20043;-82
2022/09/08 16:07:10;;;;;;;7.10;3.58;;;19.90;99.90;;;;;;6250086;22;20015;-82
2022/09/08 16:09:59;;;;;;;8.27;3.60;;;19.80;99.90;;;;;;6277595;22;20018;-83
2022/09/08 16:12:29;;;;;;;8.35;4.43;;;19.70;99.90;;;;;;6234343;22;20354;-84
2022/09/08 16:15:05;;;;;;;7.72;3.72;;;19.80;99.90;;;;;;6251639;22;20042;-81
2022/09/08 16:17:32;;;;;;;11.00;4.82;;;19.60;99.90;;;;;;6251718;22;20319;-84
2022/09/08 16:20:19;;;;;;;8.82;3.97;;;19.60;99.90;;;;;;6249775;22;20011;-83
2022/09/08 16:22:54;;;;;;;9.15;4.75;;;19.50;99.90;;;;;;6250948;22;20067;-82
2022/09/08 16:26:05;;;;;;;11.20;4.35;;;19.50;99.90;;;;;;6277477;22;20012;-83
2022/09/08 16:28:51;;;;;;;10.15;4.15;;;19.50;99.90;;;;;;6250530;22;20026;-85
2022/09/08 16:31:44;;;;;;;8.77;3.85;;;19.50;99.90;;;;;;6252615;22;20433;-83
2022/09/08 16:34:10;;;;;;;7.40;3.83;;;19.40;99.90;;;;;;6249874;22;20015;-81